LGMT

Mytilene International Airport

Mytilene, Greece
TAF LGMT 261100Z 2612/2621 VRB05KT 9999 FEW020 BECMG 2612/2614 35010KT
Issued Valid From Valid To
Apr-26 @ 11:00 UTC
(2 hours ago)
Apr-26 @ 12:00 UTC
(an hour ago)
Apr-26 @ 21:00 UTC
(in 8 hours)
Apr-26 @ 12:00 to Apr-26 @ 21:00
TAF LGMT 261100Z 2612/2621 VRB05KT 9999 FEW020
Wind Visibility Clouds
Variable at 5 knots 10,000+ meters
  • Few at 2,000' AGL
Becoming Apr-26 @ 12:00 to Apr-26 @ 21:00
BECMG 2612/2614 35010KT
Wind Visibility Clouds
350° at 10 knots 10,000+ meters
  • Few at 2,000' AGL
TAF LGMT 261100Z 2612/2621 VRB05KT 9999 FEW020 BECMG 2612/2614 35010KT
Issued Apr-26 @ 11:00 UTC
(2 hours ago)
Valid From Apr-26 @ 12:00 UTC
(an hour ago)
Valid To Apr-26 @ 21:00 UTC
(in 8 hours)
Apr-26 @ 12:00 - Apr-26 @ 21:00
Wind Visibility
Variable at 5 knots 10,000+ meters
Clouds
  • Few at 2,000' AGL
Becoming Apr-26 @ 12:00 - Apr-26 @ 21:00
Wind Visibility
350° at 10 knots 10,000+ meters
Clouds
  • Few at 2,000' AGL